createdAt,value
2019-06-10T00:01:26.444Z,6.30
2019-06-10T00:03:58.130Z,6.10
2019-06-10T00:06:30.960Z,6.22
2019-06-10T00:09:06.497Z,5.87
2019-06-10T00:11:37.213Z,6.47
2019-06-10T00:14:08.005Z,6.00
2019-06-10T00:16:41.174Z,5.97
2019-06-10T00:19:13.468Z,6.47
2019-06-10T00:21:44.078Z,6.10
2019-06-10T00:24:14.711Z,6.00
2019-06-10T00:26:47.972Z,6.90
2019-06-10T00:29:18.508Z,5.92
2019-06-10T00:31:50.824Z,5.87
2019-06-10T00:34:22.259Z,6.40
2019-06-10T00:36:52.940Z,6.03
2019-06-10T00:39:23.523Z,6.40
2019-06-10T00:41:54.182Z,6.53
2019-06-10T00:44:25.471Z,6.53
2019-06-10T00:46:56.149Z,6.33
2019-06-10T00:49:26.721Z,6.55
2019-06-10T00:51:57.413Z,6.00
2019-06-10T00:54:28.036Z,6.72
2019-06-10T00:57:01.172Z,6.30
2019-06-10T00:59:32.055Z,6.30
2019-06-10T01:02:03.358Z,6.50
2019-06-10T01:04:35.295Z,6.80
2019-06-10T01:07:06.544Z,6.53
2019-06-10T01:09:37.221Z,6.97
2019-06-10T01:12:09.054Z,6.55
2019-06-10T01:14:41.202Z,6.20
2019-06-10T01:17:15.256Z,6.25
2019-06-10T01:19:45.210Z,6.42
2019-06-10T01:22:17.349Z,6.20
2019-06-10T01:24:48.126Z,6.40
2019-06-10T01:27:21.060Z,6.55
2019-06-10T01:29:51.227Z,6.92
2019-06-10T01:32:22.111Z,6.17
2019-06-10T01:34:52.753Z,6.10
2019-06-10T01:37:25.884Z,6.72
2019-06-10T01:39:56.540Z,6.40
2019-06-10T01:42:27.095Z,6.30
2019-06-10T01:44:57.585Z,6.05
2019-06-10T01:47:30.979Z,6.40
2019-06-10T01:50:01.744Z,6.42
2019-06-10T01:52:32.266Z,6.40
2019-06-10T01:55:02.951Z,7.08
2019-06-10T01:57:33.675Z,6.23
2019-06-10T02:00:09.222Z,5.95
2019-06-10T02:02:37.368Z,6.75
2019-06-10T02:05:11.536Z,6.58
2019-06-10T02:07:41.302Z,6.42
2019-06-10T02:10:15.626Z,6.45
2019-06-10T02:12:44.415Z,6.75
2019-06-10T02:15:15.615Z,6.60
2019-06-10T02:17:47.202Z,6.30
2019-06-10T02:20:19.383Z,5.90
2019-06-10T02:22:51.581Z,6.33
2019-06-10T02:25:23.004Z,6.08
2019-06-10T02:27:53.611Z,5.95
2019-06-10T02:30:40.344Z,5.97
2019-06-10T02:32:58.075Z,6.05
2019-06-10T02:35:40.100Z,6.37
2019-06-10T02:38:03.549Z,5.95
2019-06-10T02:40:36.503Z,6.25
2019-06-10T02:43:07.333Z,5.90
2019-06-10T02:45:38.124Z,6.00
2019-06-10T02:48:08.733Z,6.05
2019-06-10T02:51:04.279Z,5.70
2019-06-10T02:53:36.629Z,6.03
2019-06-10T02:56:08.909Z,5.72
2019-06-10T02:58:40.275Z,5.97
2019-06-10T03:01:16.316Z,6.03
2019-06-10T03:03:49.406Z,6.25
2019-06-10T03:06:21.329Z,5.85
2019-06-10T03:08:50.263Z,6.08
2019-06-10T03:11:27.022Z,5.50
2019-06-10T03:13:53.208Z,6.00
2019-06-10T03:16:34.411Z,6.28
2019-06-10T03:19:05.703Z,6.57
2019-06-10T03:21:36.287Z,6.20
2019-06-10T03:24:06.851Z,5.67
2019-06-10T03:26:37.561Z,6.10
2019-06-10T03:29:08.078Z,6.03
2019-06-10T03:31:43.275Z,6.30
2019-06-10T03:34:14.367Z,6.10
2019-06-10T03:36:43.700Z,6.37
2019-06-10T03:39:14.271Z,5.90
2019-06-10T03:41:45.117Z,5.83
2019-06-10T03:44:16.846Z,6.30
2019-06-10T03:46:47.778Z,6.05
2019-06-10T03:49:19.132Z,6.12
2019-06-10T03:51:52.954Z,5.80
2019-06-10T03:54:27.316Z,6.08
2019-06-10T03:56:55.609Z,6.37
2019-06-10T03:59:29.067Z,6.10
2019-06-10T04:01:58.698Z,6.35
2019-06-10T04:04:29.558Z,6.78
2019-06-10T04:07:03.567Z,6.17
2019-06-10T04:09:33.068Z,5.85
2019-06-10T04:12:03.689Z,6.40
2019-06-10T04:14:36.036Z,6.97
2019-06-10T04:17:06.650Z,6.97
2019-06-10T04:19:37.288Z,5.92
2019-06-10T04:22:07.819Z,6.23
2019-06-10T04:24:38.722Z,6.37
2019-06-10T04:27:09.305Z,7.45
2019-06-10T04:29:42.063Z,6.28
2019-06-10T04:32:12.300Z,6.62
2019-06-10T04:34:43.433Z,6.15
2019-06-10T04:37:14.092Z,6.40
2019-06-10T04:39:44.801Z,5.97
2019-06-10T04:42:15.447Z,6.10
2019-06-10T04:44:46.678Z,6.00
2019-06-10T04:47:18.535Z,6.53
2019-06-10T04:49:52.109Z,6.08
2019-06-10T04:52:23.625Z,6.10
2019-06-10T04:54:55.343Z,6.33
2019-06-10T04:57:28.026Z,5.85
2019-06-10T04:59:58.844Z,5.97
2019-06-10T05:02:30.796Z,5.97
2019-06-10T05:05:03.916Z,5.87
2019-06-10T05:07:37.116Z,5.78
2019-06-10T05:10:09.111Z,5.53
2019-06-10T05:12:39.651Z,5.90
2019-06-10T05:15:12.541Z,6.13
2019-06-10T05:17:43.910Z,6.12
2019-06-10T05:20:15.168Z,6.10
2019-06-10T05:22:45.929Z,5.67
2019-06-10T05:25:16.648Z,5.53
2019-06-10T05:27:48.043Z,5.90
2019-06-10T05:30:20.030Z,6.87
2019-06-10T05:32:52.370Z,6.37
2019-06-10T05:35:24.235Z,6.20
2019-06-10T05:37:55.602Z,6.10
2019-06-10T05:40:27.606Z,5.80
2019-06-10T05:42:58.273Z,5.95
2019-06-10T05:45:29.414Z,5.67
2019-06-10T05:48:02.838Z,5.95
2019-06-10T05:50:34.957Z,5.67
2019-06-10T05:53:06.166Z,6.00
2019-06-10T05:55:37.493Z,6.10
2019-06-10T05:58:08.199Z,7.00
2019-06-10T06:00:38.981Z,8.43
2019-06-10T06:03:11.960Z,6.92
2019-06-10T06:05:43.344Z,6.90
2019-06-10T06:08:14.076Z,6.62
2019-06-10T06:10:44.771Z,7.33
2019-06-10T06:13:15.501Z,6.83
2019-06-10T06:15:46.290Z,7.40
2019-06-10T06:18:17.167Z,7.47
2019-06-10T06:20:48.447Z,7.20
2019-06-10T06:23:19.134Z,7.80
2019-06-10T06:25:52.960Z,7.65
2019-06-10T06:28:22.991Z,7.50
2019-06-10T06:30:53.939Z,8.03
2019-06-10T06:33:24.751Z,7.30
2019-06-10T06:36:03.693Z,7.33
2019-06-10T06:38:40.619Z,7.77
2019-06-10T06:41:22.417Z,7.75
2019-06-10T06:43:53.204Z,6.73
2019-06-10T06:46:25.613Z,6.80
2019-06-10T06:48:56.326Z,6.83
2019-06-10T06:51:37.969Z,6.67
2019-06-10T06:53:59.619Z,6.70
2019-06-10T06:56:35.447Z,6.35
2019-06-10T06:59:04.837Z,6.12
2019-06-10T07:01:38.066Z,6.05
2019-06-10T07:04:12.858Z,5.95
2019-06-10T07:06:44.213Z,7.87
2019-06-10T07:09:15.964Z,6.55
2019-06-10T07:11:48.143Z,7.15
2019-06-10T07:14:23.163Z,7.70
2019-06-10T07:16:53.044Z,6.60
2019-06-10T07:19:26.059Z,6.30
2019-06-10T07:22:08.661Z,7.20
2019-06-10T07:24:29.063Z,7.12
2019-06-10T07:27:02.603Z,6.72
2019-06-10T07:29:34.109Z,6.50
2019-06-10T07:32:04.768Z,6.75
2019-06-10T07:34:37.112Z,6.75
2019-06-10T07:37:07.713Z,6.77
2019-06-10T07:39:39.497Z,7.10
2019-06-10T07:42:10.233Z,6.33
2019-06-10T07:44:43.167Z,6.80
2019-06-10T07:47:13.170Z,6.65
2019-06-10T07:49:45.415Z,6.45
2019-06-10T07:52:19.647Z,6.37
2019-06-10T07:54:52.770Z,6.50
2019-06-10T07:57:22.673Z,6.60
2019-06-10T07:59:53.354Z,7.12
2019-06-10T08:02:23.879Z,7.10
2019-06-10T08:04:54.587Z,6.83
2019-06-10T08:07:25.554Z,6.65
2019-06-10T08:09:56.082Z,6.40
2019-06-10T08:12:26.600Z,6.37
2019-06-10T08:14:57.140Z,6.90
2019-06-10T08:17:27.668Z,6.43
2019-06-10T08:19:58.332Z,6.90
2019-06-10T08:22:33.418Z,5.78
2019-06-10T08:25:04.823Z,6.12
2019-06-10T08:27:36.459Z,5.80
2019-06-10T08:30:21.063Z,6.05
2019-06-10T08:32:44.522Z,6.00
2019-06-10T08:35:13.154Z,6.92
2019-06-10T08:37:45.965Z,6.60
2019-06-10T08:40:16.506Z,6.78
2019-06-10T08:42:48.824Z,6.85
2019-06-10T08:45:22.750Z,6.90
2019-06-10T08:47:54.228Z,6.25
2019-06-10T08:50:25.128Z,6.13
2019-06-10T08:53:12.824Z,6.22
2019-06-10T08:55:29.470Z,6.20
2019-06-10T08:58:02.761Z,6.22
2019-06-10T09:00:37.386Z,6.75
2019-06-10T09:03:12.423Z,7.15
2019-06-10T09:05:47.462Z,7.25
2019-06-10T09:08:14.719Z,7.40
2019-06-10T09:10:49.149Z,8.15
2019-06-10T09:13:17.874Z,8.15
2019-06-10T09:16:06.883Z,9.28
2019-06-10T09:18:23.208Z,7.65
2019-06-10T09:20:55.981Z,7.78
2019-06-10T09:23:25.959Z,9.25
2019-06-10T09:25:57.753Z,13.45
2019-06-10T09:28:28.672Z,14.57
2019-06-10T09:30:59.914Z,12.70
2019-06-10T09:33:33.134Z,13.55
2019-06-10T09:36:03.957Z,9.73
2019-06-10T09:38:35.929Z,8.83
2019-06-10T09:41:07.194Z,8.83
2019-06-10T09:43:41.348Z,8.68
2019-06-10T09:46:12.633Z,8.18
2019-06-10T09:48:47.911Z,8.13
2019-06-10T09:51:16.948Z,8.23
2019-06-10T09:54:01.098Z,8.50
2019-06-10T09:56:20.191Z,9.83
2019-06-10T09:58:52.947Z,8.75
2019-06-10T10:01:24.571Z,9.10
2019-06-10T10:04:00.088Z,9.08
2019-06-10T10:06:29.874Z,8.68
2019-06-10T10:09:03.216Z,8.95
2019-06-10T10:11:32.794Z,8.43
2019-06-10T10:14:06.432Z,9.08
2019-06-10T10:16:36.912Z,9.30
2019-06-10T10:19:08.664Z,9.20
2019-06-10T10:21:41.303Z,9.80
2019-06-10T10:24:14.915Z,9.63
2019-06-10T10:26:48.234Z,9.00
2019-06-10T10:29:16.511Z,7.80
2019-06-10T10:31:49.478Z,7.23
2019-06-10T10:34:19.363Z,6.80
2019-06-10T10:36:54.399Z,7.22
2019-06-10T10:39:24.680Z,7.20
2019-06-10T10:41:57.252Z,6.90
2019-06-10T10:44:27.994Z,6.60
2019-06-10T10:46:58.508Z,7.22
2019-06-10T10:49:29.057Z,7.30
2019-06-10T10:52:02.592Z,7.08
2019-06-10T10:54:35.948Z,7.20
2019-06-10T10:57:10.275Z,7.17
2019-06-10T10:59:43.130Z,7.53
2019-06-10T11:02:13.084Z,7.78
2019-06-10T11:04:47.937Z,6.58
2019-06-10T11:07:18.576Z,7.20
2019-06-10T11:09:50.416Z,7.22
2019-06-10T11:12:22.923Z,7.22
2019-06-10T11:14:56.197Z,7.57
2019-06-10T11:17:26.603Z,7.47
2019-06-10T11:19:57.781Z,9.90
2019-06-10T11:22:28.415Z,7.80
2019-06-10T11:24:59.226Z,7.78
2019-06-10T11:27:30.825Z,7.33
2019-06-10T11:30:03.516Z,6.80
2019-06-10T11:32:34.063Z,6.60
2019-06-10T11:35:04.950Z,7.75
2019-06-10T11:37:36.895Z,6.33
2019-06-10T11:40:07.874Z,7.20
2019-06-10T11:42:38.757Z,6.70
2019-06-10T11:45:10.174Z,7.37
2019-06-10T11:47:42.601Z,7.05
2019-06-10T11:50:13.583Z,6.53
2019-06-10T11:52:44.188Z,7.60
2019-06-10T11:55:19.168Z,6.73
2019-06-10T11:57:48.218Z,6.22
2019-06-10T12:00:19.210Z,6.53
2019-06-10T12:02:50.923Z,6.60
2019-06-10T12:05:24.213Z,6.80
2019-06-10T12:07:58.291Z,7.03
2019-06-10T12:10:29.833Z,6.87
2019-06-10T12:13:07.112Z,6.70
2019-06-10T12:16:13.991Z,6.40
2019-06-10T12:18:08.775Z,6.62
2019-06-10T12:20:42.518Z,6.33
2019-06-10T12:23:12.798Z,6.20
2019-06-10T12:25:43.805Z,7.50
2019-06-10T12:28:16.468Z,7.05
2019-06-10T12:30:47.857Z,7.50
2019-06-10T12:33:22.202Z,7.28
2019-06-10T12:35:59.472Z,6.83
2019-06-10T12:38:27.988Z,6.77
2019-06-10T12:41:03.237Z,7.00
2019-06-10T12:43:33.885Z,6.87
2019-06-10T12:46:05.856Z,6.30
2019-06-10T12:48:37.117Z,6.53
2019-06-10T12:51:10.239Z,6.50
2019-06-10T12:53:43.264Z,6.55
2019-06-10T12:56:15.246Z,6.65
2019-06-10T12:58:46.251Z,6.70
2019-06-10T13:01:18.343Z,6.40
2019-06-10T13:03:49.451Z,6.70
2019-06-10T13:06:23.358Z,5.57
2019-06-10T13:08:56.722Z,6.85
2019-06-10T13:11:28.695Z,5.75
2019-06-10T13:14:04.034Z,6.08
2019-06-10T13:16:34.216Z,5.50
2019-06-10T13:19:07.900Z,5.92
2019-06-10T13:21:42.433Z,5.58
2019-06-10T13:24:13.756Z,5.75
2019-06-10T13:26:47.495Z,6.90
2019-06-10T13:29:18.056Z,5.70
2019-06-10T13:31:48.697Z,6.83
2019-06-10T13:34:22.127Z,6.42
2019-06-10T13:36:53.894Z,6.42
2019-06-10T13:39:26.929Z,5.53
2019-06-10T13:41:57.574Z,6.30
2019-06-10T13:44:28.198Z,5.80
2019-06-10T13:47:02.030Z,5.58
2019-06-10T13:49:33.106Z,5.53
2019-06-10T13:52:08.501Z,6.22
2019-06-10T13:54:36.844Z,6.05
2019-06-10T13:57:13.632Z,5.90
2019-06-10T13:59:46.414Z,6.33
2019-06-10T14:02:16.096Z,5.90
2019-06-10T14:04:47.763Z,6.95
2019-06-10T14:07:18.693Z,6.17
2019-06-10T14:09:50.329Z,5.97
2019-06-10T14:12:23.144Z,5.70
2019-06-10T14:14:53.636Z,6.05
2019-06-10T14:17:25.541Z,6.75
2019-06-10T14:19:56.532Z,6.50
2019-06-10T14:22:27.400Z,6.00
2019-06-10T14:24:58.171Z,6.58
2019-06-10T14:27:29.051Z,6.22
2019-06-10T14:30:02.235Z,6.53
2019-06-10T14:32:33.079Z,6.30
2019-06-10T14:35:07.010Z,6.53
2019-06-10T14:37:39.364Z,7.50
2019-06-10T14:40:13.307Z,7.20
2019-06-10T14:42:43.256Z,7.22
2019-06-10T14:45:16.619Z,7.42
2019-06-10T14:47:47.625Z,7.20
2019-06-10T14:50:23.016Z,8.70
2019-06-10T14:52:53.183Z,7.50
2019-06-10T14:55:23.740Z,7.90
2019-06-10T14:57:55.386Z,6.58
2019-06-10T15:00:26.167Z,6.92
2019-06-10T15:02:57.375Z,7.37
2019-06-10T15:05:28.187Z,7.25
2019-06-10T15:07:59.194Z,7.42
2019-06-10T15:10:32.241Z,7.70
2019-06-10T15:13:03.933Z,7.20
2019-06-10T15:15:35.579Z,7.37
2019-06-10T15:18:07.628Z,7.10
2019-06-10T15:20:42.794Z,6.70
2019-06-10T15:23:16.450Z,7.37
2019-06-10T15:25:52.866Z,7.40
2019-06-10T15:28:18.101Z,6.75
2019-06-10T15:30:48.821Z,7.12
2019-06-10T15:33:19.701Z,7.10
2019-06-10T15:35:52.969Z,7.95
2019-06-10T15:38:23.327Z,6.90
2019-06-10T15:40:54.145Z,7.20
2019-06-10T15:43:25.124Z,6.92
2019-06-10T15:45:55.827Z,7.72
2019-06-10T15:48:26.381Z,7.20
2019-06-10T15:50:57.253Z,7.37
2019-06-10T15:53:28.258Z,7.10
2019-06-10T15:56:14.421Z,7.62
2019-06-10T15:58:32.109Z,7.37
2019-06-10T16:01:05.328Z,7.67
2019-06-10T16:03:35.995Z,8.55
2019-06-10T16:06:07.263Z,7.92
2019-06-10T16:08:39.144Z,8.03
2019-06-10T16:11:10.618Z,8.53
2019-06-10T16:13:43.540Z,7.08
2019-06-10T16:16:14.952Z,7.60
2019-06-10T16:18:45.954Z,8.98
2019-06-10T16:21:17.458Z,7.87
2019-06-10T16:23:49.001Z,7.73
2019-06-10T16:26:20.032Z,6.97
2019-06-10T16:28:52.203Z,8.00
2019-06-10T16:31:25.561Z,7.53
2019-06-10T16:33:55.432Z,8.27
2019-06-10T16:36:32.023Z,7.93
2019-06-10T16:39:04.288Z,7.83
2019-06-10T16:41:37.305Z,8.15
2019-06-10T16:44:10.374Z,8.20
2019-06-10T16:46:43.157Z,7.95
2019-06-10T16:49:14.273Z,8.28
2019-06-10T16:51:45.227Z,8.75
2019-06-10T16:54:23.948Z,8.43
2019-06-10T16:56:53.102Z,9.63
2019-06-10T16:59:26.259Z,7.97
2019-06-10T17:01:57.781Z,8.90
2019-06-10T17:04:29.879Z,8.10
2019-06-10T17:07:02.213Z,8.20
2019-06-10T17:09:33.038Z,9.18
2019-06-10T17:12:04.579Z,8.20
2019-06-10T17:14:39.207Z,7.92
2019-06-10T17:17:14.951Z,9.60
2019-06-10T17:19:48.193Z,8.85
2019-06-10T17:22:24.086Z,8.00
2019-06-10T17:24:54.958Z,8.43
2019-06-10T17:27:27.905Z,8.00
2019-06-10T17:29:58.707Z,8.73
2019-06-10T17:32:30.278Z,9.67
2019-06-10T17:35:02.378Z,9.68
2019-06-10T17:37:34.248Z,9.33
2019-06-10T17:40:14.450Z,9.40
2019-06-10T17:42:46.039Z,9.03
2019-06-10T17:45:22.567Z,11.00
2019-06-10T17:47:54.437Z,10.00
2019-06-10T17:50:26.521Z,9.28
2019-06-10T17:52:57.848Z,9.80
2019-06-10T17:55:29.644Z,10.80
2019-06-10T17:58:07.547Z,8.48
2019-06-10T18:00:42.065Z,9.60
2019-06-10T18:03:13.573Z,9.83
2019-06-10T18:05:46.526Z,8.90
2019-06-10T18:08:18.598Z,10.75
2019-06-10T18:10:53.485Z,10.63
2019-06-10T18:13:30.058Z,9.20
2019-06-10T18:16:08.183Z,10.08
2019-06-10T18:18:43.794Z,10.10
2019-06-10T18:21:15.044Z,10.18
2019-06-10T18:23:46.026Z,9.95
2019-06-10T18:26:16.735Z,9.30
2019-06-10T18:29:04.444Z,9.78
2019-06-10T18:31:23.127Z,9.93
2019-06-10T18:33:53.178Z,10.15
2019-06-10T18:36:32.674Z,9.43
2019-06-10T18:39:07.068Z,9.13
2019-06-10T18:41:41.876Z,9.20
2019-06-10T18:44:22.476Z,9.88
2019-06-10T18:46:47.890Z,8.75
2019-06-10T18:49:22.659Z,9.33
2019-06-10T18:51:53.683Z,9.60
2019-06-10T18:54:25.157Z,9.05
2019-06-10T18:56:57.570Z,9.35
2019-06-10T18:59:33.153Z,9.00
2019-06-10T19:02:08.436Z,10.32
2019-06-10T19:04:40.334Z,11.90
2019-06-10T19:07:14.421Z,10.38
2019-06-10T19:09:48.039Z,9.38
2019-06-10T19:12:17.765Z,9.93
2019-06-10T19:14:48.545Z,9.93
2019-06-10T19:17:23.644Z,9.63
2019-06-10T19:19:55.326Z,9.63
2019-06-10T19:22:26.019Z,10.10
2019-06-10T19:24:57.539Z,9.93
2019-06-10T19:27:28.747Z,11.15
2019-06-10T19:29:59.395Z,10.25
2019-06-10T19:32:36.706Z,9.73
2019-06-10T19:35:13.128Z,10.88
2019-06-10T19:37:43.923Z,10.18
2019-06-10T19:40:16.195Z,10.48
2019-06-10T19:42:46.976Z,11.30
2019-06-10T19:45:18.092Z,10.32
2019-06-10T19:47:52.292Z,11.18
2019-06-10T19:50:23.349Z,9.60
2019-06-10T19:52:56.750Z,10.30
2019-06-10T19:55:29.367Z,9.83
2019-06-10T19:58:03.773Z,10.10
2019-06-10T20:00:35.930Z,10.13
2019-06-10T20:03:08.578Z,9.70
2019-06-10T20:05:40.058Z,9.43
2019-06-10T20:08:12.117Z,9.93
2019-06-10T20:10:44.481Z,9.48
2019-06-10T20:13:15.203Z,9.50
2019-06-10T20:15:47.978Z,9.65
2019-06-10T20:18:18.765Z,9.20
2019-06-10T20:20:49.329Z,9.20
2019-06-10T20:23:19.898Z,9.53
2019-06-10T20:25:52.700Z,9.83
2019-06-10T20:28:22.992Z,10.53
2019-06-10T20:31:12.728Z,9.95
2019-06-10T20:33:48.896Z,10.05
2019-06-10T20:36:23.296Z,10.13
2019-06-10T20:38:53.518Z,10.00
2019-06-10T20:41:24.571Z,9.68
2019-06-10T20:43:55.540Z,10.60
2019-06-10T20:46:26.503Z,10.78
2019-06-10T20:49:00.177Z,9.80
2019-06-10T20:51:46.191Z,10.20
2019-06-10T20:54:05.677Z,10.53
2019-06-10T20:56:38.594Z,10.77
2019-06-10T20:59:13.002Z,9.85
2019-06-10T21:01:44.412Z,10.60
2019-06-10T21:04:15.241Z,10.40
2019-06-10T21:06:47.661Z,10.58
2019-06-10T21:09:19.169Z,10.20
2019-06-10T21:11:51.036Z,10.60
2019-06-10T21:14:22.903Z,10.43
2019-06-10T21:16:53.817Z,9.65
2019-06-10T21:19:25.970Z,9.65
2019-06-10T21:21:56.793Z,14.98
2019-06-10T21:24:28.095Z,10.37
2019-06-10T21:26:59.219Z,10.20
2019-06-10T21:29:32.166Z,9.33
2019-06-10T21:32:03.675Z,9.40
2019-06-10T21:34:38.021Z,9.20
2019-06-10T21:37:08.722Z,8.80
2019-06-10T21:39:44.200Z,9.28
2019-06-10T21:42:13.091Z,8.35
2019-06-10T21:44:43.881Z,8.80
2019-06-10T21:47:14.614Z,10.55
2019-06-10T21:49:46.984Z,8.53
2019-06-10T21:52:17.619Z,8.83
2019-06-10T21:54:48.610Z,7.97
2019-06-10T21:57:19.396Z,8.10
2019-06-10T21:59:51.514Z,7.50
2019-06-10T22:02:23.101Z,7.47
2019-06-10T22:04:56.111Z,7.30
2019-06-10T22:07:26.768Z,7.85
2019-06-10T22:09:57.371Z,7.97
2019-06-10T22:12:27.942Z,7.47
2019-06-10T22:14:59.804Z,7.87
2019-06-10T22:17:30.513Z,9.55
2019-06-10T22:20:01.420Z,7.25
2019-06-10T22:22:32.347Z,6.22
2019-06-10T22:25:07.109Z,6.53
2019-06-10T22:27:37.867Z,6.80
2019-06-10T22:30:11.550Z,6.65
2019-06-10T22:32:42.953Z,6.30
2019-06-10T22:35:13.614Z,6.17
2019-06-10T22:37:45.600Z,5.97
2019-06-10T22:40:16.788Z,6.58
2019-06-10T22:42:47.521Z,5.53
2019-06-10T22:45:18.169Z,5.20
2019-06-10T22:47:49.719Z,5.67
2019-06-10T22:50:22.958Z,5.58
2019-06-10T22:52:55.593Z,5.03
2019-06-10T22:55:26.445Z,5.22
2019-06-10T22:57:59.745Z,5.70
2019-06-10T23:00:29.272Z,9.95
2019-06-10T23:03:02.548Z,5.67
2019-06-10T23:05:33.262Z,4.72
2019-06-10T23:08:04.117Z,5.10
2019-06-10T23:10:35.485Z,4.80
2019-06-10T23:13:07.782Z,5.08
2019-06-10T23:15:38.593Z,5.23
2019-06-10T23:18:12.477Z,5.00
2019-06-10T23:20:42.712Z,5.05
2019-06-10T23:23:13.979Z,5.05
2019-06-10T23:25:44.898Z,5.50
2019-06-10T23:28:15.990Z,4.83
2019-06-10T23:30:47.255Z,4.87
2019-06-10T23:33:17.873Z,4.65
2019-06-10T23:35:48.459Z,5.15
2019-06-10T23:38:19.152Z,5.05
2019-06-10T23:40:50.666Z,5.58
2019-06-10T23:43:22.555Z,5.30
2019-06-10T23:45:53.362Z,5.40
2019-06-10T23:48:23.987Z,5.00
2019-06-10T23:50:56.084Z,12.47
2019-06-10T23:53:27.136Z,5.80
2019-06-10T23:55:58.035Z,5.33
2019-06-10T23:58:32.863Z,5.03
